createdAt,value
2024-03-05T00:00:30.150Z,19.97
2024-03-05T00:02:56.819Z,18.45
2024-03-05T00:05:23.429Z,19.92
2024-03-05T00:07:50.133Z,19.48
2024-03-05T00:10:17.037Z,19.27
2024-03-05T00:12:43.649Z,19.33
2024-03-05T00:15:10.624Z,17.98
2024-03-05T00:17:38.208Z,18.35
2024-03-05T00:20:05.488Z,18.10
2024-03-05T00:22:32.131Z,19.90
2024-03-05T00:24:59.865Z,18.65
2024-03-05T00:27:27.169Z,19.20
2024-03-05T00:29:53.806Z,17.47
2024-03-05T00:32:20.420Z,20.20
2024-03-05T00:34:47.114Z,17.38
2024-03-05T00:37:13.792Z,18.08
2024-03-05T00:39:40.405Z,18.58
2024-03-05T00:42:07.094Z,18.13
2024-03-05T00:44:33.731Z,17.60
2024-03-05T00:47:00.314Z,18.63
2024-03-05T00:49:27.732Z,17.63
2024-03-05T00:51:54.381Z,18.33
2024-03-05T00:54:20.935Z,17.33
2024-03-05T00:56:48.129Z,19.58
2024-03-05T00:59:14.680Z,17.53
2024-03-05T01:01:41.395Z,18.70
2024-03-05T01:04:09.277Z,17.95
2024-03-05T01:06:36.281Z,17.63
2024-03-05T01:09:03.943Z,18.27
2024-03-05T01:11:31.017Z,18.83
2024-03-05T01:16:24.649Z,16.33
2024-03-05T01:18:51.223Z,17.23
2024-03-05T01:21:17.844Z,17.45
2024-03-05T01:23:44.962Z,17.63
2024-03-05T01:28:38.155Z,17.93
2024-03-05T01:31:04.796Z,18.63
2024-03-05T01:33:31.476Z,17.58
2024-03-05T01:35:58.192Z,18.20
2024-03-05T01:38:25.091Z,17.63
2024-03-05T01:40:51.800Z,18.30
2024-03-05T01:43:21.076Z,15.57
2024-03-05T01:45:49.335Z,16.80
2024-03-05T01:48:17.426Z,16.70
2024-03-05T01:50:46.106Z,18.00
2024-03-05T01:53:16.469Z,17.23
2024-03-05T01:55:44.786Z,17.80
2024-03-05T01:58:15.836Z,17.43
2024-03-05T02:00:43.292Z,17.63
2024-03-05T02:03:12.311Z,17.83
2024-03-05T02:05:46.058Z,17.80
2024-03-05T02:08:16.132Z,18.07
2024-03-05T02:10:47.291Z,18.13
2024-03-05T02:13:13.969Z,18.13
2024-03-05T02:15:40.740Z,17.80
2024-03-05T02:18:09.031Z,17.83
2024-03-05T02:20:35.924Z,16.87
2024-03-05T02:23:03.588Z,17.42
2024-03-05T02:25:32.612Z,17.67
2024-03-05T02:28:00.902Z,17.50
2024-03-05T02:30:27.608Z,18.87
2024-03-05T02:32:54.476Z,17.35
2024-03-05T02:35:21.671Z,19.10
2024-03-05T02:40:15.268Z,18.67
2024-03-05T02:45:09.652Z,18.20
2024-03-05T02:47:43.383Z,18.57
2024-03-05T02:50:11.054Z,17.53
2024-03-05T02:52:39.868Z,18.20
2024-03-05T02:55:10.821Z,17.97
2024-03-05T02:57:42.466Z,17.43
2024-03-05T03:00:10.483Z,18.17
2024-03-05T03:02:37.895Z,18.13
2024-03-05T03:05:04.891Z,17.00
2024-03-05T03:07:31.499Z,17.85
2024-03-05T03:09:58.068Z,17.52
2024-03-05T03:12:24.680Z,17.05
2024-03-05T03:14:51.255Z,17.02
2024-03-05T03:17:17.885Z,16.27
2024-03-05T03:19:44.502Z,17.38
2024-03-05T03:22:11.621Z,17.25
2024-03-05T03:27:04.721Z,17.37
2024-03-05T03:29:31.347Z,19.00
2024-03-05T03:31:58.122Z,18.75
2024-03-05T03:34:24.765Z,17.42
2024-03-05T03:36:51.549Z,17.10
2024-03-05T03:39:27.183Z,16.52
2024-03-05T03:41:55.109Z,17.47
2024-03-05T03:44:23.515Z,18.63
2024-03-05T03:46:51.512Z,17.23
2024-03-05T03:49:27.033Z,18.03
2024-03-05T03:51:55.023Z,17.17
2024-03-05T03:54:22.933Z,17.73
2024-03-05T03:56:50.201Z,16.90
2024-03-05T03:59:17.052Z,18.87
2024-03-05T04:01:47.692Z,17.30
2024-03-05T04:04:14.972Z,17.40
2024-03-05T04:06:41.991Z,16.77
2024-03-05T04:09:15.030Z,17.20
2024-03-05T04:11:43.035Z,16.80
2024-03-05T04:14:10.358Z,15.43
2024-03-05T04:16:41.524Z,16.63
2024-03-05T04:19:08.468Z,17.03
2024-03-05T04:21:45.656Z,16.63
2024-03-05T04:24:14.499Z,13.20
2024-03-05T04:26:42.599Z,16.40
2024-03-05T04:29:18.081Z,17.13
2024-03-05T04:31:50.720Z,15.87
2024-03-05T04:34:21.810Z,16.47
2024-03-05T04:36:51.554Z,17.90
2024-03-05T04:39:18.166Z,18.23
2024-03-05T04:41:45.661Z,17.75
2024-03-05T04:44:12.337Z,18.03
2024-03-05T04:46:39.507Z,17.60
2024-03-05T04:49:07.500Z,18.10
2024-03-05T04:51:34.447Z,20.33
2024-03-05T04:54:00.960Z,20.50
2024-03-05T04:56:27.799Z,19.83
2024-03-05T04:58:54.580Z,19.63
2024-03-05T05:01:22.951Z,18.03
2024-03-05T05:06:16.543Z,19.30
2024-03-05T05:08:43.958Z,19.53
2024-03-05T05:11:10.924Z,19.98
2024-03-05T05:13:37.732Z,19.42
2024-03-05T05:16:06.332Z,18.40
2024-03-05T05:18:33.123Z,18.37
2024-03-05T05:21:00.808Z,18.38
2024-03-05T05:23:27.427Z,18.60
2024-03-05T05:25:54.169Z,18.23
2024-03-05T05:28:21.355Z,19.30
2024-03-05T05:33:14.844Z,19.03
2024-03-05T05:35:41.519Z,18.35
2024-03-05T05:38:11.620Z,17.15
2024-03-05T05:40:38.296Z,17.90
2024-03-05T05:43:05.301Z,16.50
2024-03-05T05:45:31.898Z,17.95
2024-03-05T05:47:59.322Z,18.63
2024-03-05T05:50:32.490Z,17.93
2024-03-05T05:52:59.691Z,17.27
2024-03-05T05:55:27.283Z,16.80
2024-03-05T05:57:55.778Z,16.17
2024-03-05T06:00:46.904Z,17.57
2024-03-05T06:03:13.727Z,16.57
2024-03-05T06:05:43.553Z,16.95
2024-03-05T06:08:13.282Z,16.60
2024-03-05T06:10:40.637Z,16.53
2024-03-05T06:13:08.282Z,16.33
2024-03-05T06:15:37.068Z,15.30
2024-03-05T06:18:03.995Z,16.33
2024-03-05T06:20:30.715Z,15.63
2024-03-05T06:22:59.368Z,15.10
2024-03-05T06:25:28.487Z,16.13
2024-03-05T06:27:55.862Z,15.33
2024-03-05T06:30:24.011Z,17.85
2024-03-05T06:32:52.758Z,14.57
2024-03-05T06:35:23.760Z,16.17
2024-03-05T06:37:51.384Z,15.03
2024-03-05T06:40:24.854Z,14.17
2024-03-05T06:42:53.419Z,14.83
2024-03-05T06:45:28.870Z,14.17
2024-03-05T06:48:07.306Z,13.67
2024-03-05T06:50:39.511Z,14.07
2024-03-05T06:53:28.974Z,14.73
2024-03-05T06:56:14.601Z,13.40
2024-03-05T06:58:47.147Z,13.03
2024-03-05T07:01:16.072Z,13.43
2024-03-05T07:03:46.263Z,13.77
2024-03-05T07:06:16.038Z,14.60
2024-03-05T07:08:44.301Z,14.77
2024-03-05T07:11:13.270Z,13.27
2024-03-05T07:13:44.777Z,13.57
2024-03-05T07:16:17.740Z,13.20
2024-03-05T07:18:48.568Z,14.10
2024-03-05T07:21:18.171Z,13.70
2024-03-05T07:23:47.259Z,12.83
2024-03-05T07:26:17.076Z,12.90
2024-03-05T07:28:44.497Z,13.27
2024-03-05T07:31:12.358Z,14.37
2024-03-05T07:33:39.786Z,12.00
2024-03-05T07:36:07.808Z,12.33
2024-03-05T07:38:34.679Z,12.80
2024-03-05T07:41:08.512Z,12.02
2024-03-05T07:43:40.780Z,13.93
2024-03-05T07:46:08.517Z,13.18
2024-03-05T07:48:35.116Z,15.13
2024-03-05T07:51:01.711Z,12.77
2024-03-05T07:53:28.283Z,12.68
2024-03-05T07:55:55.127Z,12.32
2024-03-05T07:58:22.313Z,11.90
2024-03-05T08:00:49.033Z,12.80
2024-03-05T08:03:15.639Z,11.75
2024-03-05T08:05:43.154Z,12.10
2024-03-05T08:08:10.852Z,11.77
2024-03-05T08:10:37.664Z,10.73
2024-03-05T08:13:04.480Z,11.43
2024-03-05T08:15:31.060Z,11.10
2024-03-05T08:17:58.258Z,10.65
2024-03-05T08:20:27.615Z,11.87
2024-03-05T08:22:55.830Z,11.23
2024-03-05T08:25:23.423Z,12.10
2024-03-05T08:27:52.338Z,11.23
2024-03-05T08:30:23.227Z,11.57
2024-03-05T08:32:52.668Z,11.57
2024-03-05T08:35:20.146Z,12.33
2024-03-05T08:37:48.705Z,11.27
2024-03-05T08:40:17.561Z,10.80
2024-03-05T08:42:46.441Z,12.13
2024-03-05T08:45:15.977Z,10.50
2024-03-05T08:47:46.186Z,12.00
2024-03-05T08:50:13.685Z,11.70
2024-03-05T08:52:45.042Z,11.23
2024-03-05T08:55:13.857Z,11.17
2024-03-05T08:57:41.486Z,10.03
2024-03-05T09:02:48.574Z,11.60
2024-03-05T09:05:15.385Z,11.82
2024-03-05T09:07:43.903Z,11.80
2024-03-05T09:10:11.389Z,12.17
2024-03-05T09:12:38.355Z,12.37
2024-03-05T09:15:07.172Z,13.15
2024-03-05T09:17:35.149Z,12.20
2024-03-05T09:20:14.956Z,14.37
2024-03-05T09:22:48.503Z,12.07
2024-03-05T09:25:16.929Z,12.97
2024-03-05T09:27:46.072Z,13.13
2024-03-05T09:30:16.495Z,13.00
2024-03-05T09:32:44.832Z,12.53
2024-03-05T09:35:13.847Z,12.47
2024-03-05T09:37:41.187Z,12.07
2024-03-05T09:40:08.349Z,11.65
2024-03-05T09:45:07.789Z,11.63
2024-03-05T09:47:38.746Z,11.67
2024-03-05T09:50:07.155Z,10.90
2024-03-05T09:52:35.449Z,9.80
2024-03-05T09:55:02.770Z,10.73
2024-03-05T10:00:18.560Z,10.67
2024-03-05T10:02:51.805Z,10.53
2024-03-05T10:05:26.288Z,10.77
2024-03-05T10:07:53.076Z,10.60
2024-03-05T10:10:21.122Z,10.15
2024-03-05T10:12:48.166Z,9.57
2024-03-05T10:15:22.127Z,9.80
2024-03-05T10:17:51.863Z,9.43
2024-03-05T10:20:27.008Z,8.27
2024-03-05T10:22:59.642Z,9.27
2024-03-05T10:25:28.055Z,9.20
2024-03-05T10:27:56.040Z,8.60
2024-03-05T10:30:28.705Z,8.95
2024-03-05T10:32:58.418Z,7.80
2024-03-05T10:35:25.163Z,8.73
2024-03-05T10:38:04.217Z,7.60
2024-03-05T10:40:36.622Z,8.23
2024-03-05T10:43:09.888Z,7.88
2024-03-05T10:45:39.470Z,7.68
2024-03-05T10:48:12.316Z,7.03
2024-03-05T10:50:41.430Z,7.57
2024-03-05T10:53:09.606Z,7.97
2024-03-05T10:55:38.739Z,7.72
2024-03-05T10:58:12.327Z,6.68
2024-03-05T11:00:40.921Z,7.10
2024-03-05T11:03:12.847Z,7.07
2024-03-05T11:05:51.070Z,7.13
2024-03-05T11:08:20.730Z,7.60
2024-03-05T11:10:54.590Z,7.00
2024-03-05T11:13:22.807Z,7.53
2024-03-05T11:15:52.442Z,7.32
2024-03-05T11:18:29.626Z,7.30
2024-03-05T11:20:57.099Z,7.70
2024-03-05T11:23:30.679Z,7.72
2024-03-05T11:26:04.959Z,7.77
2024-03-05T11:28:36.836Z,7.13
2024-03-05T11:31:19.236Z,7.40
2024-03-05T11:33:58.985Z,7.53
2024-03-05T11:36:31.302Z,7.78
2024-03-05T11:39:01.879Z,6.93
2024-03-05T11:41:34.920Z,6.97
2024-03-05T11:44:03.901Z,7.05
2024-03-05T11:46:44.969Z,6.82
2024-03-05T11:49:12.850Z,7.22
2024-03-05T11:51:41.644Z,6.43
2024-03-05T11:54:12.574Z,6.80
2024-03-05T11:56:47.178Z,6.88
2024-03-05T11:59:14.071Z,6.20
2024-03-05T12:01:44.392Z,6.82
2024-03-05T12:04:13.072Z,6.60
2024-03-05T12:06:42.373Z,6.97
2024-03-05T12:09:20.053Z,8.25
2024-03-05T12:12:11.084Z,7.10
2024-03-05T12:14:38.883Z,7.05
2024-03-05T12:17:08.712Z,7.13
2024-03-05T12:19:36.054Z,7.75
2024-03-05T12:22:02.865Z,7.00
2024-03-05T12:24:30.444Z,7.15
2024-03-05T12:26:59.044Z,7.03
2024-03-05T12:29:29.157Z,6.80
2024-03-05T12:31:57.550Z,7.10
2024-03-05T12:34:24.742Z,7.25
2024-03-05T12:36:51.991Z,7.55
2024-03-05T12:41:58.118Z,6.60
2024-03-05T12:44:24.771Z,7.43
2024-03-05T12:46:51.614Z,7.10
2024-03-05T12:49:18.795Z,7.55
2024-03-05T12:51:45.409Z,7.15
2024-03-05T12:54:13.282Z,6.68
2024-03-05T12:56:46.422Z,6.72
2024-03-05T12:59:20.550Z,7.60
2024-03-05T13:01:47.282Z,6.75
2024-03-05T13:04:13.892Z,7.82
2024-03-05T13:06:40.630Z,7.15
2024-03-05T13:09:07.274Z,7.32
2024-03-05T13:11:34.025Z,6.65
2024-03-05T13:14:10.388Z,6.97
2024-03-05T13:16:37.641Z,7.03
2024-03-05T13:19:04.250Z,6.57
2024-03-05T13:21:31.224Z,6.30
2024-03-05T13:23:59.131Z,6.70
2024-03-05T13:26:25.893Z,6.70
2024-03-05T13:28:52.498Z,6.63
2024-03-05T13:31:19.134Z,7.13
2024-03-05T13:33:45.821Z,6.60
2024-03-05T13:36:13.410Z,6.45
2024-03-05T13:38:39.997Z,7.60
2024-03-05T13:41:07.797Z,7.70
2024-03-05T13:43:35.579Z,8.32
2024-03-05T13:46:04.662Z,7.13
2024-03-05T13:48:34.526Z,6.97
2024-03-05T13:51:03.462Z,6.68
2024-03-05T13:53:30.110Z,7.43
2024-03-05T13:55:56.979Z,6.65
2024-03-05T13:58:23.861Z,6.10
2024-03-05T14:00:50.813Z,6.15
2024-03-05T14:03:17.507Z,6.72
2024-03-05T14:05:44.066Z,5.38
2024-03-05T14:08:13.668Z,6.70
2024-03-05T14:10:43.613Z,6.32
2024-03-05T14:13:18.945Z,6.65
2024-03-05T14:15:45.617Z,6.63
2024-03-05T14:18:12.508Z,7.05
2024-03-05T14:20:42.031Z,6.65
2024-03-05T14:23:09.308Z,7.28
2024-03-05T14:25:36.074Z,6.20
2024-03-05T14:28:03.103Z,6.90
2024-03-05T14:30:31.471Z,6.70
2024-03-05T14:33:00.070Z,6.32
2024-03-05T14:35:27.402Z,6.13
2024-03-05T14:40:22.360Z,7.20
2024-03-05T14:42:50.526Z,6.47
2024-03-05T14:45:17.561Z,6.18
2024-03-05T14:47:45.314Z,5.97
2024-03-05T14:50:12.217Z,5.85
2024-03-05T14:52:38.946Z,6.72
2024-03-05T14:55:06.116Z,6.07
2024-03-05T14:59:59.234Z,6.30
2024-03-05T15:02:25.991Z,5.88
2024-03-05T15:04:52.907Z,6.55
2024-03-05T15:07:19.568Z,7.10
2024-03-05T15:09:46.759Z,6.35
2024-03-05T15:14:43.422Z,6.97
2024-03-05T15:17:10.679Z,6.65
2024-03-05T15:22:04.324Z,6.43
2024-03-05T15:24:30.986Z,6.90
2024-03-05T15:27:04.396Z,7.45
2024-03-05T15:29:32.705Z,8.13
2024-03-05T15:32:01.274Z,7.15
2024-03-05T15:34:28.239Z,7.72
2024-03-05T15:36:55.938Z,7.50
2024-03-05T15:39:22.662Z,7.53
2024-03-05T15:41:50.057Z,6.70
2024-03-05T15:44:17.915Z,7.30
2024-03-05T15:46:45.783Z,7.97
2024-03-05T15:49:12.729Z,7.82
2024-03-05T15:51:39.458Z,7.95
2024-03-05T15:54:06.053Z,7.63
2024-03-05T15:56:45.994Z,8.35
2024-03-05T15:59:33.216Z,7.70
2024-03-05T16:01:59.933Z,7.03
2024-03-05T16:04:48.769Z,8.65
2024-03-05T16:07:13.494Z,7.93
2024-03-05T16:09:40.762Z,7.60
2024-03-05T16:12:12.123Z,7.63
2024-03-05T16:14:41.779Z,7.90
2024-03-05T16:17:11.975Z,8.23
2024-03-05T16:19:39.699Z,7.53
2024-03-05T16:22:06.266Z,8.43
2024-03-05T16:24:32.925Z,8.50
2024-03-05T16:26:59.768Z,7.47
2024-03-05T16:29:27.192Z,7.57
2024-03-05T16:31:54.863Z,9.07
2024-03-05T16:34:21.560Z,7.50
2024-03-05T16:36:51.011Z,8.32
2024-03-05T16:39:19.630Z,8.10
2024-03-05T16:41:46.566Z,8.23
2024-03-05T16:44:13.338Z,8.15
2024-03-05T16:46:42.220Z,8.00
2024-03-05T16:49:09.762Z,8.30
2024-03-05T16:51:37.260Z,8.00
2024-03-05T16:54:04.394Z,8.30
2024-03-05T16:58:57.656Z,7.27
2024-03-05T17:01:25.149Z,7.35
2024-03-05T17:03:54.720Z,8.13
2024-03-05T17:06:23.349Z,9.63
2024-03-05T17:08:50.676Z,10.17
2024-03-05T17:11:17.650Z,10.90
2024-03-05T17:13:47.492Z,12.18
2024-03-05T17:16:14.907Z,9.20
2024-03-05T17:18:42.170Z,8.93
2024-03-05T17:21:09.693Z,9.43
2024-03-05T17:23:42.207Z,9.57
2024-03-05T17:26:11.165Z,8.93
2024-03-05T17:28:38.146Z,9.47
2024-03-05T17:31:04.939Z,9.57
2024-03-05T17:33:32.187Z,9.88
2024-03-05T17:35:59.295Z,9.30
2024-03-05T17:40:58.324Z,9.17
2024-03-05T17:43:25.676Z,10.57
2024-03-05T17:45:52.350Z,10.27
2024-03-05T17:48:20.491Z,11.18
2024-03-05T17:50:47.222Z,10.67
2024-03-05T17:53:14.082Z,10.88
2024-03-05T17:55:40.810Z,9.85
2024-03-05T17:58:07.411Z,10.27
2024-03-05T18:00:46.143Z,10.55
2024-03-05T18:03:15.394Z,10.13
2024-03-05T18:05:46.379Z,11.90
2024-03-05T18:08:14.551Z,11.07
2024-03-05T18:10:42.907Z,10.90
2024-03-05T18:13:10.586Z,10.80
2024-03-05T18:15:38.365Z,10.80
2024-03-05T18:18:07.229Z,12.00
2024-03-05T18:20:37.789Z,11.30
2024-03-05T18:23:05.733Z,11.47
2024-03-05T18:25:36.796Z,13.17
2024-03-05T18:28:05.218Z,12.53
2024-03-05T18:30:43.044Z,11.63
2024-03-05T18:35:41.114Z,12.40
2024-03-05T18:40:40.966Z,12.70
2024-03-05T18:43:09.296Z,12.67
2024-03-05T18:45:37.088Z,13.07
2024-03-05T18:48:09.635Z,12.57
2024-03-05T18:50:37.299Z,13.70
2024-03-05T18:53:06.963Z,12.35
2024-03-05T18:55:36.744Z,13.70
2024-03-05T18:58:07.622Z,12.67
2024-03-05T19:00:34.815Z,11.87
2024-03-05T19:03:02.108Z,12.97
2024-03-05T19:05:28.783Z,12.88
2024-03-05T19:07:55.618Z,13.32
2024-03-05T19:10:23.706Z,13.35
2024-03-05T19:12:50.251Z,15.17
2024-03-05T19:15:22.025Z,14.40
2024-03-05T19:17:49.175Z,14.90
2024-03-05T19:20:16.907Z,14.43
2024-03-05T19:22:43.877Z,14.47
2024-03-05T19:25:12.794Z,14.88
2024-03-05T19:27:41.112Z,14.17
2024-03-05T19:30:12.772Z,14.87
2024-03-05T19:32:43.346Z,14.80
2024-03-05T19:35:12.387Z,14.60
2024-03-05T19:37:43.871Z,14.30
2024-03-05T19:40:18.971Z,14.53
2024-03-05T19:42:49.339Z,15.13
2024-03-05T19:45:16.003Z,14.93
2024-03-05T19:47:42.825Z,14.27
2024-03-05T19:50:15.012Z,14.75
2024-03-05T19:52:41.938Z,13.83
2024-03-05T19:55:09.623Z,14.45
2024-03-05T19:57:36.624Z,15.60
2024-03-05T20:00:12.722Z,13.90
2024-03-05T20:02:40.128Z,14.70
2024-03-05T20:05:07.165Z,14.15
2024-03-05T20:10:02.068Z,15.60
2024-03-05T20:12:28.953Z,13.47
2024-03-05T20:14:56.255Z,14.95
2024-03-05T20:17:24.234Z,15.73
2024-03-05T20:19:52.285Z,14.17
2024-03-05T20:22:19.775Z,15.77
2024-03-05T20:24:48.551Z,14.87
2024-03-05T20:27:17.011Z,15.73
2024-03-05T20:29:43.819Z,15.47
2024-03-05T20:32:10.733Z,15.93
2024-03-05T20:34:39.416Z,14.07
2024-03-05T20:37:06.241Z,14.33
2024-03-05T20:39:32.876Z,14.10
2024-03-05T20:41:59.489Z,14.43
2024-03-05T20:44:26.582Z,14.20
2024-03-05T20:46:53.426Z,14.55
2024-03-05T20:49:20.285Z,14.30
2024-03-05T20:51:46.983Z,13.15
2024-03-05T20:54:13.639Z,12.98
2024-03-05T20:56:40.230Z,14.65
2024-03-05T20:59:06.977Z,15.35
2024-03-05T21:01:33.811Z,14.32
2024-03-05T21:04:01.573Z,13.02
2024-03-05T21:06:28.385Z,13.73
2024-03-05T21:08:59.673Z,13.88
2024-03-05T21:11:26.448Z,14.53
2024-03-05T21:13:53.279Z,13.60
2024-03-05T21:16:20.198Z,14.93
2024-03-05T21:18:47.426Z,14.40
2024-03-05T21:21:17.848Z,14.63
2024-03-05T21:23:45.101Z,13.67
2024-03-05T21:26:27.377Z,15.40
2024-03-05T21:29:01.332Z,14.83
2024-03-05T21:31:30.035Z,14.27
2024-03-05T21:33:56.698Z,14.23
2024-03-05T21:36:23.710Z,14.35
2024-03-05T21:38:50.399Z,14.38
2024-03-05T21:41:17.234Z,15.90
2024-03-05T21:43:45.106Z,15.27
2024-03-05T21:46:11.770Z,15.13
2024-03-05T21:48:38.398Z,14.70
2024-03-05T21:51:09.845Z,15.02
2024-03-05T21:53:39.681Z,15.67
2024-03-05T21:56:06.877Z,15.85
2024-03-05T21:58:34.105Z,16.30
2024-03-05T22:01:01.100Z,16.30
2024-03-05T22:03:29.511Z,14.95
2024-03-05T22:05:59.633Z,15.50
2024-03-05T22:08:28.908Z,16.93
2024-03-05T22:10:58.387Z,15.80
2024-03-05T22:13:26.071Z,16.10
2024-03-05T22:15:52.830Z,18.10
2024-03-05T22:18:19.475Z,15.73
2024-03-05T22:20:46.122Z,15.18
2024-03-05T22:23:13.891Z,16.13
2024-03-05T22:25:41.978Z,16.10
2024-03-05T22:28:08.684Z,15.83
2024-03-05T22:30:35.452Z,15.90
2024-03-05T22:33:02.228Z,15.82
2024-03-05T22:35:28.929Z,16.52
2024-03-05T22:37:58.329Z,16.30
2024-03-05T22:40:25.302Z,16.10
2024-03-05T22:42:52.952Z,16.45
2024-03-05T22:45:22.538Z,16.17
2024-03-05T22:47:49.826Z,15.60
2024-03-05T22:50:17.173Z,15.40
2024-03-05T22:52:45.654Z,15.67
2024-03-05T22:55:13.138Z,13.93
2024-03-05T22:57:39.924Z,13.90
2024-03-05T23:00:25.960Z,16.30
2024-03-05T23:02:53.051Z,13.13
2024-03-05T23:07:47.986Z,13.02
2024-03-05T23:10:18.449Z,14.27
2024-03-05T23:12:45.724Z,13.43
2024-03-05T23:15:16.403Z,13.80
2024-03-05T23:17:43.981Z,13.37
2024-03-05T23:22:40.867Z,12.37
2024-03-05T23:25:09.835Z,13.35
2024-03-05T23:27:37.196Z,12.57
2024-03-05T23:30:06.030Z,12.37
2024-03-05T23:32:33.286Z,11.67
2024-03-05T23:35:03.522Z,12.30
2024-03-05T23:37:30.120Z,11.07
2024-03-05T23:39:58.035Z,11.27
2024-03-05T23:42:25.663Z,11.30
2024-03-05T23:44:53.607Z,10.70
2024-03-05T23:47:20.450Z,11.47
2024-03-05T23:49:47.865Z,11.25
2024-03-05T23:52:14.689Z,11.13
2024-03-05T23:54:44.407Z,11.48
2024-03-05T23:57:11.542Z,11.50
